Aeroporto :
LOGIN :

Iscrizione | Disclaimer

   EN    FR    IT 

 










Sommario :    VFR   VFR Marginale   IFR   IFR Intensivo   IFR Molto Intensivo
Visibilità : 
Base nubi : 
>= 8 km
>= 3000ft
5 / 8 km
1000 / 3000 ft
1500m / 5 km
500 / 1000 ft
800 / 1500m
200 / 500 ft
< 800m
< 200 ft
Simboli :   Temporali  Nebbia  Neve Forte  Precipitazioni Forti  Vento > 20 kt
SIGMETs :   Varie  Temporali  Ghiacco  Turbolenza  Onda orograficha  Ceneri Vulcaniche







- Altitudine del aeroporto : 755 ft
- Codice IATA : DRS


EDDC - Dresden Klotzsche

ULTIMO METAR :
  • 151820Z 27003KT 220V300 9999 OVC036 17/11 Q1016 NOSIG

METARs OBSOLETI :
  • 151750Z 29005KT 240V320 9999 OVC035 17/11 Q1016 NOSIG
  • 151720Z 30005KT 260V330 9999 OVC037 17/11 Q1016 NOSIG
  • 151650Z 29007KT 250V330 9999 OVC037 17/11 Q1016 NOSIG
  • 151620Z 31005KT 280V340 9999 FEW028 OVC038 17/11 Q1016 NOSIG
  • 151550Z 31007KT 260V350 9999 FEW028 OVC038 17/11 Q1016 NOSIG

TAF TAF EDDC
Valido dal 15 a 18 ore il 16 a 18 ore UTC


151700Z 1518/1618 27005KT 9999 BKN040
BECMG 1605/1607 29010KT
Nessun NOTAM noto per questo aeroporto.



MetMap, La meteo Aeronautica in un colpo d'occhio ! - Copyright ORBIFLY Dicembre 2007 - Disclaimer

ORBIFLY MET'MAP TEAM :

Programmazione e sviluppo : Alexandra Zaïnal
Concezione e sviluppo : Baudouin d'Aumeries
Co-Programmazione e sviluppo : Marc-Olivier Méhu
Supporto tecnico e logistico : Manuel Goepfert
Aiuto per la traduzione : Arnaldo La Scala

Contatto : metmap@orbifly.com




FONTI E CREDITI :

   NOAA